createdAt,value
2022-10-02T00:00:13.006Z,0.20
2022-10-02T00:02:43.912Z,0.30
2022-10-02T00:05:21.137Z,0.20
2022-10-02T00:07:52.674Z,0.20
2022-10-02T00:10:36.003Z,0.20
2022-10-02T00:13:12.035Z,0.20
2022-10-02T00:15:42.545Z,0.30
2022-10-02T00:18:40.188Z,0.17
2022-10-02T00:21:08.472Z,0.30
2022-10-02T00:23:36.694Z,0.20
2022-10-02T00:26:12.419Z,0.10
2022-10-02T00:28:46.340Z,0.20
2022-10-02T00:31:53.238Z,0.22
2022-10-02T00:34:55.368Z,0.40
2022-10-02T00:37:43.149Z,0.25
2022-10-02T00:40:29.813Z,0.20
2022-10-02T00:43:05.360Z,0.30
2022-10-02T00:46:06.107Z,0.20
2022-10-02T00:48:52.740Z,0.20
2022-10-02T00:51:33.036Z,0.20
2022-10-02T00:54:38.919Z,0.40
2022-10-02T01:03:03.556Z,0.20
2022-10-02T01:05:33.219Z,0.20
2022-10-02T01:08:01.810Z,0.10
2022-10-02T01:12:58.999Z,0.30
2022-10-02T01:15:39.182Z,0.20
2022-10-02T01:18:10.089Z,0.30
2022-10-02T01:20:48.093Z,0.10
2022-10-02T01:23:37.259Z,0.63
2022-10-02T01:26:05.726Z,0.10
2022-10-02T01:28:33.831Z,0.20
2022-10-02T01:31:09.501Z,0.35
2022-10-02T01:33:39.297Z,0.10
2022-10-02T01:36:08.323Z,0.13
2022-10-02T01:38:37.476Z,0.20
2022-10-02T01:41:05.703Z,0.20
2022-10-02T01:43:37.520Z,0.10
2022-10-02T01:46:23.863Z,0.20
2022-10-02T01:48:58.159Z,0.17
2022-10-02T01:51:44.781Z,0.10
2022-10-02T01:54:44.711Z,0.20
2022-10-02T01:57:52.238Z,0.10
2022-10-02T02:00:22.920Z,0.15
2022-10-02T02:03:13.415Z,0.10
2022-10-02T02:05:46.384Z,0.20
2022-10-02T02:08:30.962Z,0.10
2022-10-02T02:11:14.829Z,0.10
2022-10-02T02:14:08.063Z,0.10
2022-10-02T02:16:48.771Z,0.10
2022-10-02T02:19:43.194Z,0.10
2022-10-02T02:22:33.595Z,0.10
2022-10-02T02:25:19.189Z,0.10
2022-10-02T02:27:56.373Z,0.10
2022-10-02T02:30:25.805Z,0.10
2022-10-02T02:33:09.542Z,0.20
2022-10-02T02:35:45.070Z,0.20
2022-10-02T02:38:23.695Z,0.10
2022-10-02T02:43:32.320Z,0.00
2022-10-02T02:46:14.099Z,0.20
2022-10-02T02:48:51.501Z,0.13
2022-10-02T02:51:29.163Z,0.10
2022-10-02T02:54:22.165Z,0.10
2022-10-02T02:56:52.115Z,0.10
2022-10-02T02:59:23.939Z,0.17
2022-10-02T03:01:52.277Z,0.10
2022-10-02T03:04:20.578Z,0.10
2022-10-02T03:06:53.002Z,0.13
2022-10-02T03:09:24.339Z,0.20
2022-10-02T03:12:07.499Z,0.10
2022-10-02T03:14:47.498Z,0.10
2022-10-02T03:17:43.404Z,0.10
2022-10-02T03:20:21.229Z,0.10
2022-10-02T03:23:10.960Z,0.20
2022-10-02T03:26:14.480Z,0.08
2022-10-02T03:28:55.912Z,0.10
2022-10-02T03:31:28.292Z,0.03
2022-10-02T03:33:59.769Z,0.10
2022-10-02T03:36:28.548Z,0.13
2022-10-02T03:41:46.466Z,0.00
2022-10-02T03:44:14.460Z,0.20
2022-10-02T03:46:42.772Z,0.20
2022-10-02T03:49:10.971Z,0.22
2022-10-02T03:51:39.067Z,0.00
2022-10-02T03:54:21.911Z,0.20
2022-10-02T03:56:59.554Z,0.10
2022-10-02T03:59:51.446Z,0.10
2022-10-02T04:02:45.705Z,0.10
2022-10-02T04:05:28.487Z,0.10
2022-10-02T04:08:03.216Z,0.28
2022-10-02T04:10:45.345Z,0.03
2022-10-02T04:13:35.888Z,0.10
2022-10-02T04:16:10.899Z,0.00
2022-10-02T04:18:47.103Z,0.10
2022-10-02T04:21:39.059Z,0.10
2022-10-02T04:24:21.228Z,0.10
2022-10-02T04:27:03.950Z,0.05
2022-10-02T04:29:40.388Z,0.10
2022-10-02T04:32:35.684Z,0.10
2022-10-02T04:35:26.859Z,0.10
2022-10-02T04:38:26.571Z,0.20
2022-10-02T04:41:00.544Z,0.10
2022-10-02T04:43:55.738Z,0.10
2022-10-02T04:46:29.963Z,0.10
2022-10-02T04:49:10.081Z,0.00
2022-10-02T04:51:56.533Z,0.00
2022-10-02T04:54:39.800Z,0.10
2022-10-02T04:57:25.139Z,0.00
2022-10-02T05:00:11.736Z,0.08
2022-10-02T05:02:58.335Z,0.10
2022-10-02T05:05:51.087Z,0.20
2022-10-02T05:08:52.795Z,0.00
2022-10-02T05:11:53.429Z,0.10
2022-10-02T05:14:36.142Z,0.10
2022-10-02T05:17:19.380Z,0.03
2022-10-02T05:20:09.134Z,0.10
2022-10-02T05:22:53.470Z,0.15
2022-10-02T05:25:49.346Z,0.10
2022-10-02T05:28:26.754Z,0.00
2022-10-02T05:31:10.146Z,0.13
2022-10-02T05:33:48.652Z,0.00
2022-10-02T05:39:09.813Z,0.00
2022-10-02T05:41:40.678Z,0.00
2022-10-02T05:44:22.521Z,0.10
2022-10-02T05:47:15.574Z,0.10
2022-10-02T05:50:14.815Z,0.00
2022-10-02T05:52:46.098Z,0.00
2022-10-02T05:55:26.538Z,0.17
2022-10-02T05:58:10.812Z,0.10
2022-10-02T06:00:47.464Z,0.00
2022-10-02T06:03:42.168Z,0.03
2022-10-02T06:06:19.610Z,0.10
2022-10-02T06:08:55.532Z,0.00
2022-10-02T06:11:35.879Z,0.00
2022-10-02T06:14:26.614Z,0.10
2022-10-02T06:17:10.968Z,0.03
2022-10-02T06:20:03.015Z,0.10
2022-10-02T06:22:45.399Z,0.10
2022-10-02T06:25:38.244Z,0.00
2022-10-02T06:28:33.963Z,0.00
2022-10-02T06:31:11.329Z,0.05
2022-10-02T06:33:39.788Z,0.10
2022-10-02T06:36:29.546Z,0.10
2022-10-02T06:39:22.126Z,0.00
2022-10-02T06:41:53.159Z,0.00
2022-10-02T06:44:27.001Z,0.00
2022-10-02T06:47:10.511Z,0.00
2022-10-02T06:50:07.528Z,0.00
2022-10-02T06:53:16.582Z,0.03
2022-10-02T06:56:23.080Z,0.00
2022-10-02T06:59:14.830Z,0.00
2022-10-02T07:02:42.484Z,0.00
2022-10-02T07:05:32.051Z,0.10
2022-10-02T07:08:20.522Z,0.10
2022-10-02T07:13:57.085Z,0.00
2022-10-02T07:16:40.627Z,0.08
2022-10-02T07:19:21.059Z,0.00
2022-10-02T07:21:58.437Z,0.00
2022-10-02T07:24:50.985Z,0.00
2022-10-02T07:27:25.148Z,0.20
2022-10-02T07:30:05.515Z,0.00
2022-10-02T07:32:43.116Z,0.10
2022-10-02T07:35:29.294Z,0.00
2022-10-02T07:38:22.602Z,0.10
2022-10-02T07:41:08.783Z,0.00
2022-10-02T07:43:48.857Z,0.00
2022-10-02T07:46:20.046Z,0.10
2022-10-02T07:49:17.422Z,0.10
2022-10-02T07:51:58.743Z,0.10
2022-10-02T07:54:36.144Z,0.10
2022-10-02T07:57:26.930Z,0.10
2022-10-02T08:00:02.661Z,0.08
2022-10-02T08:02:57.874Z,0.10
2022-10-02T08:05:39.849Z,0.10
2022-10-02T08:08:30.824Z,0.10
2022-10-02T08:11:37.303Z,0.10
2022-10-02T08:14:36.974Z,0.10
2022-10-02T08:17:26.641Z,0.10
2022-10-02T08:20:02.123Z,0.10
2022-10-02T08:22:46.472Z,0.10
2022-10-02T08:25:29.351Z,0.10
2022-10-02T08:28:20.563Z,0.10
2022-10-02T08:30:48.768Z,0.25
2022-10-02T08:33:20.235Z,0.10
2022-10-02T08:36:22.007Z,0.10
2022-10-02T08:38:57.999Z,0.10
2022-10-02T08:41:32.141Z,0.10
2022-10-02T08:44:36.208Z,0.10
2022-10-02T08:47:36.748Z,0.10
2022-10-02T08:50:23.475Z,0.10
2022-10-02T08:53:19.421Z,0.00
2022-10-02T08:56:22.623Z,0.03
2022-10-02T08:58:59.718Z,0.10
2022-10-02T09:02:11.875Z,0.10
2022-10-02T09:04:55.379Z,0.08
2022-10-02T09:07:27.441Z,0.30
2022-10-02T09:10:37.886Z,0.10
2022-10-02T09:13:37.043Z,0.20
2022-10-02T09:16:12.713Z,0.20
2022-10-02T09:18:59.125Z,0.10
2022-10-02T09:21:51.915Z,0.30
2022-10-02T09:24:38.816Z,0.10
2022-10-02T09:27:45.973Z,0.08
2022-10-02T09:30:23.980Z,0.10
2022-10-02T09:33:16.072Z,0.00
2022-10-02T09:36:11.191Z,0.10
2022-10-02T09:39:27.033Z,0.10
2022-10-02T09:42:27.480Z,0.10
2022-10-02T09:45:32.697Z,0.20
2022-10-02T09:48:25.589Z,0.10
2022-10-02T09:51:16.980Z,0.40
2022-10-02T09:54:20.343Z,0.10
2022-10-02T09:57:00.723Z,0.10
2022-10-02T09:59:41.934Z,0.10
2022-10-02T10:02:28.516Z,0.10
2022-10-02T10:05:19.302Z,0.10
2022-10-02T10:07:47.413Z,0.20
2022-10-02T10:10:40.261Z,0.10
2022-10-02T10:13:24.223Z,0.20
2022-10-02T10:15:55.469Z,0.10
2022-10-02T10:18:35.481Z,0.30
2022-10-02T10:21:29.460Z,0.15
2022-10-02T10:24:10.566Z,0.20
2022-10-02T10:27:11.207Z,0.10
2022-10-02T10:29:50.243Z,0.10
2022-10-02T10:32:21.329Z,0.10
2022-10-02T10:35:26.109Z,0.20
2022-10-02T10:38:32.546Z,0.10
2022-10-02T10:41:06.565Z,0.20
2022-10-02T10:43:53.215Z,0.10
2022-10-02T10:46:45.802Z,0.10
2022-10-02T10:49:22.961Z,0.20
2022-10-02T10:52:05.961Z,0.10
2022-10-02T10:55:11.765Z,0.10
2022-10-02T10:58:12.765Z,0.10
2022-10-02T11:00:46.931Z,0.10
2022-10-02T11:03:38.732Z,0.10
2022-10-02T11:06:35.191Z,0.10
2022-10-02T11:09:09.259Z,0.10
2022-10-02T11:11:56.152Z,0.10
2022-10-02T11:14:53.259Z,0.10
2022-10-02T11:17:44.394Z,0.10
2022-10-02T11:20:42.443Z,0.10
2022-10-02T11:23:23.030Z,0.10
2022-10-02T11:26:03.459Z,0.10
2022-10-02T11:28:34.741Z,0.13
2022-10-02T11:31:36.084Z,0.20
2022-10-02T11:34:07.659Z,0.30
2022-10-02T11:36:38.808Z,0.10
2022-10-02T11:39:22.374Z,0.20
2022-10-02T11:42:12.046Z,0.20
2022-10-02T11:45:01.909Z,0.20
2022-10-02T11:48:05.931Z,0.30
2022-10-02T11:50:48.919Z,0.30
2022-10-02T11:53:41.711Z,0.30
2022-10-02T11:56:28.436Z,0.25
2022-10-02T11:59:27.545Z,0.35
2022-10-02T12:02:34.269Z,0.30
2022-10-02T12:05:17.581Z,0.30
2022-10-02T12:08:10.110Z,0.40
2022-10-02T12:10:41.902Z,0.20
2022-10-02T12:13:31.165Z,0.40
2022-10-02T12:16:17.502Z,0.30
2022-10-02T12:18:59.649Z,0.40
2022-10-02T12:21:37.675Z,0.30
2022-10-02T12:24:26.289Z,0.47
2022-10-02T12:29:35.438Z,0.70
2022-10-02T12:32:37.134Z,0.52
2022-10-02T12:35:21.536Z,0.47
2022-10-02T12:38:03.749Z,0.55
2022-10-02T12:40:51.724Z,0.40
2022-10-02T12:43:41.661Z,0.47
2022-10-02T12:46:34.733Z,0.30
2022-10-02T12:49:12.088Z,0.47
2022-10-02T12:51:59.017Z,0.73
2022-10-02T12:55:02.426Z,0.63
2022-10-02T12:57:45.139Z,0.30
2022-10-02T13:00:40.737Z,0.40
2022-10-02T13:03:30.537Z,0.60
2022-10-02T13:06:17.109Z,0.25
2022-10-02T13:08:47.952Z,0.40
2022-10-02T13:11:55.880Z,0.35
2022-10-02T13:14:52.177Z,0.30
2022-10-02T13:17:23.099Z,0.52
2022-10-02T13:20:00.222Z,0.50
2022-10-02T13:22:45.892Z,0.50
2022-10-02T13:25:56.683Z,0.40
2022-10-02T13:28:52.394Z,0.30
2022-10-02T13:31:30.763Z,0.40
2022-10-02T13:34:17.385Z,0.52
2022-10-02T13:36:54.530Z,0.20
2022-10-02T13:39:53.642Z,0.30
2022-10-02T13:42:49.478Z,0.45
2022-10-02T13:45:34.702Z,0.20
2022-10-02T13:48:18.491Z,0.60
2022-10-02T13:51:16.276Z,0.43
2022-10-02T13:54:06.229Z,0.40
2022-10-02T13:56:50.746Z,0.30
2022-10-02T13:59:51.308Z,0.30
2022-10-02T14:02:40.806Z,0.40
2022-10-02T14:05:39.827Z,0.40
2022-10-02T14:08:58.377Z,0.30
2022-10-02T14:11:44.839Z,0.30
2022-10-02T14:14:28.224Z,0.22
2022-10-02T14:17:29.048Z,0.30
2022-10-02T14:20:05.769Z,0.20
2022-10-02T14:24:28.261Z,0.30
2022-10-02T14:27:07.227Z,0.20
2022-10-02T14:29:44.811Z,0.30
2022-10-02T14:32:31.485Z,0.35
2022-10-02T14:35:30.945Z,0.20
2022-10-02T14:38:05.007Z,0.28
2022-10-02T14:40:54.644Z,0.20
2022-10-02T14:43:54.921Z,0.38
2022-10-02T14:46:41.166Z,0.20
2022-10-02T14:49:17.824Z,0.38
2022-10-02T14:52:22.954Z,0.40
2022-10-02T14:55:17.057Z,0.20
2022-10-02T14:57:45.305Z,0.38
2022-10-02T15:00:24.855Z,0.32
2022-10-02T15:03:22.273Z,0.30
2022-10-02T15:06:01.216Z,0.10
2022-10-02T15:08:41.056Z,0.20
2022-10-02T15:11:45.884Z,0.52
2022-10-02T15:14:34.322Z,0.45
2022-10-02T15:19:49.847Z,0.17
2022-10-02T15:22:21.094Z,0.10
2022-10-02T15:25:07.076Z,0.20
2022-10-02T15:27:47.294Z,0.20
2022-10-02T15:30:20.465Z,0.20
2022-10-02T15:33:27.305Z,0.10
2022-10-02T15:36:42.139Z,0.20
2022-10-02T15:39:27.500Z,0.10
2022-10-02T15:42:06.794Z,0.20
2022-10-02T15:44:55.537Z,0.20
2022-10-02T15:47:45.483Z,0.20
2022-10-02T15:50:24.619Z,0.20
2022-10-02T15:53:24.384Z,0.10
2022-10-02T15:56:23.430Z,0.10
2022-10-02T15:59:31.292Z,0.10
2022-10-02T16:02:18.518Z,0.10
2022-10-02T16:05:15.299Z,0.10
2022-10-02T16:07:54.082Z,0.22
2022-10-02T16:10:56.245Z,0.10
2022-10-02T16:13:43.506Z,0.10
2022-10-02T16:16:17.601Z,0.10
2022-10-02T16:19:22.180Z,0.17
2022-10-02T16:22:04.672Z,0.10
2022-10-02T16:24:42.244Z,0.30
2022-10-02T16:27:28.195Z,0.10
2022-10-02T16:30:09.715Z,0.10
2022-10-02T16:32:46.975Z,0.20
2022-10-02T16:35:44.869Z,0.10
2022-10-02T16:38:21.312Z,0.20
2022-10-02T16:41:04.639Z,0.10
2022-10-02T16:44:09.741Z,0.15
2022-10-02T16:46:54.224Z,0.10
2022-10-02T16:49:40.474Z,0.10
2022-10-02T16:52:46.454Z,0.10
2022-10-02T16:55:32.542Z,0.10
2022-10-02T16:58:12.733Z,0.10
2022-10-02T17:00:41.064Z,0.10
2022-10-02T17:03:35.903Z,0.10
2022-10-02T17:06:39.683Z,0.10
2022-10-02T17:09:26.593Z,0.10
2022-10-02T17:12:05.793Z,0.10
2022-10-02T17:14:43.098Z,0.10
2022-10-02T17:17:11.256Z,0.10
2022-10-02T17:20:03.730Z,0.10
2022-10-02T17:22:44.037Z,0.17
2022-10-02T17:25:50.970Z,0.10
2022-10-02T17:29:05.839Z,0.10
2022-10-02T17:31:55.580Z,0.10
2022-10-02T17:34:27.917Z,0.10
2022-10-02T17:37:10.578Z,0.10
2022-10-02T17:40:17.447Z,0.13
2022-10-02T17:42:52.472Z,0.10
2022-10-02T17:45:29.905Z,0.10
2022-10-02T17:48:00.902Z,0.10
2022-10-02T17:50:37.966Z,0.17
2022-10-02T17:53:25.095Z,0.10
2022-10-02T17:56:05.414Z,0.10
2022-10-02T17:58:36.650Z,0.20
2022-10-02T18:01:38.592Z,0.20
2022-10-02T18:04:19.281Z,0.10
2022-10-02T18:07:05.468Z,0.10
2022-10-02T18:09:42.546Z,0.20
2022-10-02T18:12:22.736Z,0.10
2022-10-02T18:14:57.113Z,0.32
2022-10-02T18:17:48.248Z,0.10
2022-10-02T18:20:37.841Z,0.20
2022-10-02T18:23:24.287Z,0.13
2022-10-02T18:26:19.053Z,0.10
2022-10-02T18:29:06.604Z,0.10
2022-10-02T18:31:59.644Z,0.13
2022-10-02T18:34:34.088Z,0.10
2022-10-02T18:37:16.553Z,0.10
2022-10-02T18:40:06.988Z,0.10
2022-10-02T18:43:20.155Z,0.10
2022-10-02T18:46:25.468Z,0.10
2022-10-02T18:49:29.112Z,0.20
2022-10-02T18:52:08.229Z,0.10
2022-10-02T18:54:54.971Z,0.10
2022-10-02T18:57:50.870Z,0.10
2022-10-02T19:00:25.602Z,0.10
2022-10-02T19:03:20.228Z,0.20
2022-10-02T19:05:56.427Z,0.10
2022-10-02T19:08:51.664Z,0.10
2022-10-02T19:11:20.223Z,0.17
2022-10-02T19:13:49.308Z,0.10
2022-10-02T19:16:23.889Z,0.10
2022-10-02T19:19:15.865Z,0.10
2022-10-02T19:21:44.109Z,0.10
2022-10-02T19:24:16.737Z,0.10
2022-10-02T19:26:48.311Z,0.10
2022-10-02T19:29:24.053Z,0.17
2022-10-02T19:31:53.482Z,0.03
2022-10-02T19:34:25.575Z,0.10
2022-10-02T19:36:58.401Z,0.10
2022-10-02T19:39:33.884Z,0.10
2022-10-02T19:42:23.607Z,0.10
2022-10-02T19:45:24.440Z,0.10
2022-10-02T19:48:00.995Z,0.10
2022-10-02T19:50:42.591Z,0.30
2022-10-02T19:53:30.480Z,0.17
2022-10-02T19:56:00.828Z,0.10
2022-10-02T19:58:57.245Z,0.10
2022-10-02T20:01:28.796Z,0.13
2022-10-02T20:04:00.122Z,0.20
2022-10-02T20:06:32.609Z,0.17
2022-10-02T20:09:14.911Z,0.10
2022-10-02T20:12:14.210Z,0.13
2022-10-02T20:14:59.329Z,0.13
2022-10-02T20:17:27.832Z,0.20
2022-10-02T20:19:59.876Z,0.10
2022-10-02T20:22:28.233Z,0.10
2022-10-02T20:25:13.291Z,0.10
2022-10-02T20:27:53.686Z,0.10
2022-10-02T20:30:24.394Z,0.10
2022-10-02T20:32:56.208Z,0.13
2022-10-02T20:35:24.602Z,0.10
2022-10-02T20:37:54.832Z,0.10
2022-10-02T20:40:27.443Z,0.20
2022-10-02T20:43:02.927Z,0.05
2022-10-02T20:45:40.082Z,0.10
2022-10-02T20:48:11.392Z,0.10
2022-10-02T20:50:47.389Z,0.10
2022-10-02T20:53:49.318Z,0.10
2022-10-02T20:56:36.633Z,0.20
2022-10-02T20:59:23.340Z,0.10
2022-10-02T21:02:03.926Z,0.20
2022-10-02T21:05:11.721Z,0.10
2022-10-02T21:08:07.794Z,0.10
2022-10-02T21:11:17.071Z,0.20
2022-10-02T21:14:00.437Z,0.10
2022-10-02T21:16:41.268Z,0.10
2022-10-02T21:19:28.097Z,0.20
2022-10-02T21:22:11.571Z,0.10
2022-10-02T21:25:05.383Z,0.20
2022-10-02T21:27:54.564Z,0.10
2022-10-02T21:30:25.994Z,0.10
2022-10-02T21:33:14.444Z,0.17
2022-10-02T21:36:01.128Z,0.10
2022-10-02T21:39:06.474Z,0.20
2022-10-02T21:41:52.904Z,0.22
2022-10-02T21:45:06.971Z,0.20
2022-10-02T21:47:41.043Z,0.22
2022-10-02T21:50:30.847Z,0.20
2022-10-02T21:53:29.489Z,0.30
2022-10-02T21:56:33.262Z,0.30
2022-10-02T21:59:36.744Z,0.63
2022-10-02T22:02:23.391Z,0.20
2022-10-02T22:05:30.258Z,0.35
2022-10-02T22:08:36.980Z,0.10
2022-10-02T22:11:20.239Z,0.20
2022-10-02T22:13:51.849Z,0.30
2022-10-02T22:16:58.578Z,0.20
2022-10-02T22:19:51.403Z,0.20
2022-10-02T22:22:46.094Z,0.40
2022-10-02T22:25:32.565Z,0.40
2022-10-02T22:28:15.491Z,0.22
2022-10-02T22:30:58.704Z,0.35
2022-10-02T22:33:44.760Z,0.30
2022-10-02T22:36:34.214Z,0.25
2022-10-02T22:39:10.295Z,0.20
2022-10-02T22:41:50.828Z,0.30
2022-10-02T22:44:34.225Z,0.20
2022-10-02T22:47:14.993Z,0.32
2022-10-02T22:49:50.954Z,0.35
2022-10-02T22:52:36.343Z,0.30
2022-10-02T22:55:25.503Z,0.40
2022-10-02T22:58:13.747Z,0.40
2022-10-02T23:01:02.849Z,0.20
2022-10-02T23:03:30.939Z,0.20
2022-10-02T23:06:22.507Z,0.30
2022-10-02T23:09:19.160Z,0.25
2022-10-02T23:12:12.290Z,0.35
2022-10-02T23:14:55.833Z,0.20
2022-10-02T23:17:36.300Z,0.73
2022-10-02T23:20:43.407Z,0.30
2022-10-02T23:23:38.230Z,0.25
2022-10-02T23:26:17.096Z,0.50
2022-10-02T23:29:13.110Z,0.40
2022-10-02T23:32:00.466Z,0.55
2022-10-02T23:34:54.017Z,0.50
2022-10-02T23:37:47.469Z,0.30
2022-10-02T23:40:19.204Z,0.25
2022-10-02T23:42:59.570Z,0.57
2022-10-02T23:45:41.961Z,0.38
2022-10-02T23:48:14.993Z,0.43
2022-10-02T23:51:15.059Z,0.52
2022-10-02T23:54:04.686Z,0.52
2022-10-02T23:56:54.207Z,0.60
2022-10-02T23:59:43.777Z,0.60
